Time;durP1;ratioP1;P1;durP2;ratioP2;P2;SDS_P1;SDS_P2;PMS_P1;PMS_P2;Temp;Humidity;BMP_temperature;BMP_pressure;BME280_temperature;BME280_humidity;BME280_pressure;Samples;Min_cycle;Max_cycle;Signal;HPM_P1;HPM_P2
2023/01/01 00:01:59;;;;;;;20.90;16.20;;;16.10;99.90;;;;;;6121598;23;20431;-58
2023/01/01 00:04:27;;;;;;;20.37;14.03;;;16.10;99.90;;;;;;6121999;23;20427;-58
2023/01/01 00:06:57;;;;;;;16.07;11.93;;;16.10;99.90;;;;;;6122509;23;20482;-58
2023/01/01 00:12:10;;;;;;;19.30;12.33;;;16.10;99.90;;;;;;6123058;23;20379;-56
2023/01/01 00:14:38;;;;;;;11.87;9.17;;;16.10;99.90;;;;;;6121976;23;20435;-58
2023/01/01 00:17:05;;;;;;;10.70;7.53;;;16.10;99.90;;;;;;6122214;23;20400;-57
2023/01/01 00:19:32;;;;;;;12.47;8.07;;;16.10;99.90;;;;;;6122165;23;20430;-58
2023/01/01 00:21:59;;;;;;;9.57;7.20;;;16.10;99.90;;;;;;6121713;23;20411;-56
2023/01/01 00:24:27;;;;;;;13.33;8.00;;;16.10;99.90;;;;;;6122215;23;20432;-57
2023/01/01 00:27:00;;;;;;;8.70;6.20;;;16.10;99.90;;;;;;6122690;23;20427;-59
2023/01/01 00:29:29;;;;;;;9.20;5.47;;;16.10;99.90;;;;;;6122317;23;20439;-57
2023/01/01 00:31:58;;;;;;;7.50;5.30;;;16.10;99.90;;;;;;6122212;23;20391;-58
2023/01/01 00:34:25;;;;;;;6.63;4.47;;;16.10;99.90;;;;;;6122240;23;20430;-56
2023/01/01 00:36:51;;;;;;;5.50;4.63;;;16.10;99.90;;;;;;6122003;23;20404;-55
2023/01/01 00:39:18;;;;;;;4.77;4.37;;;16.10;99.90;;;;;;6122624;23;20428;-58
2023/01/01 00:41:47;;;;;;;8.83;7.00;;;16.00;99.90;;;;;;6122120;23;20404;-56
2023/01/01 00:44:15;;;;;;;9.20;6.30;;;16.00;99.90;;;;;;6122119;23;20423;-58
2023/01/01 00:46:44;;;;;;;15.73;11.00;;;16.00;99.90;;;;;;6123006;23;20440;-59
2023/01/01 00:49:11;;;;;;;7.50;4.57;;;16.00;99.90;;;;;;6122447;23;20427;-58
2023/01/01 00:51:39;;;;;;;12.20;5.07;;;16.00;99.90;;;;;;6122236;23;20861;-59
2023/01/01 00:54:06;;;;;;;21.63;14.80;;;16.10;99.90;;;;;;6122157;23;20431;-58
2023/01/01 00:56:34;;;;;;;15.87;11.70;;;16.10;99.90;;;;;;6122697;23;20395;-64
2023/01/01 00:59:05;;;;;;;11.10;9.50;;;16.10;99.90;;;;;;6122505;23;20424;-58
2023/01/01 01:01:34;;;;;;;12.50;6.80;;;16.10;99.90;;;;;;6122725;23;20395;-61
2023/01/01 01:04:02;;;;;;;7.50;5.37;;;16.10;99.90;;;;;;6122517;23;20474;-59
2023/01/01 01:06:29;;;;;;;10.13;5.93;;;16.10;99.90;;;;;;6122689;23;20432;-59
2023/01/01 01:08:58;;;;;;;6.50;5.53;;;16.10;99.90;;;;;;6122441;23;20469;-59
2023/01/01 01:11:26;;;;;;;7.23;4.20;;;16.10;99.90;;;;;;6122668;23;20456;-59
2023/01/01 01:13:54;;;;;;;16.80;9.87;;;16.10;99.90;;;;;;6121935;23;20408;-58
2023/01/01 01:16:25;;;;;;;13.23;7.73;;;16.10;99.90;;;;;;6121563;23;20399;-56
2023/01/01 01:18:53;;;;;;;18.43;7.10;;;16.10;99.90;;;;;;6121557;23;20460;-57
2023/01/01 01:21:24;;;;;;;7.10;4.37;;;16.10;99.90;;;;;;6121907;23;20396;-60
2023/01/01 01:23:53;;;;;;;6.27;4.23;;;16.10;99.90;;;;;;6121734;23;20388;-58
2023/01/01 01:26:22;;;;;;;16.03;10.27;;;16.10;99.90;;;;;;6121470;23;20456;-58
2023/01/01 01:28:49;;;;;;;10.63;3.13;;;16.10;99.90;;;;;;6121647;23;20391;-57
2023/01/01 01:31:16;;;;;;;4.00;3.57;;;16.10;99.90;;;;;;6120993;23;20494;-59
2023/01/01 01:33:48;;;;;;;3.07;2.80;;;16.10;99.90;;;;;;6121415;23;20415;-59
2023/01/01 01:36:17;;;;;;;7.37;3.43;;;16.10;99.90;;;;;;6120768;23;20427;-56
2023/01/01 01:38:44;;;;;;;6.70;3.20;;;16.10;99.90;;;;;;6121228;23;20391;-57
2023/01/01 01:41:13;;;;;;;5.10;3.60;;;16.10;99.90;;;;;;6121414;23;20403;-58
2023/01/01 01:43:52;;;;;;;4.33;3.37;;;16.10;99.90;;;;;;6120660;23;20396;-59
2023/01/01 01:46:26;;;;;;;3.90;3.00;;;16.10;99.90;;;;;;6120752;23;20530;-58
2023/01/01 01:49:03;;;;;;;3.90;2.57;;;16.10;99.90;;;;;;6121474;23;20388;-59
2023/01/01 01:51:34;;;;;;;9.30;4.00;;;16.10;99.90;;;;;;6120681;23;20826;-60
2023/01/01 01:54:09;;;;;;;5.27;3.30;;;16.10;99.90;;;;;;6120821;23;20403;-58
2023/01/01 01:56:43;;;;;;;6.33;3.70;;;16.10;99.90;;;;;;6121188;23;20393;-60
2023/01/01 01:59:10;;;;;;;8.63;3.90;;;16.10;99.90;;;;;;6121819;23;20399;-58
2023/01/01 02:01:40;;;;;;;8.63;4.20;;;16.00;99.90;;;;;;6121257;23;20419;-58
2023/01/01 02:04:09;;;;;;;8.07;4.10;;;16.10;99.90;;;;;;6120698;23;20403;-58
2023/01/01 02:06:37;;;;;;;6.80;3.93;;;16.00;99.90;;;;;;6120830;23;20450;-59
2023/01/01 02:09:06;;;;;;;8.40;4.23;;;16.10;99.90;;;;;;6120871;23;20404;-60
2023/01/01 02:11:35;;;;;;;7.17;4.97;;;16.10;99.90;;;;;;6121904;23;20441;-57
2023/01/01 02:14:07;;;;;;;5.80;3.97;;;16.10;99.90;;;;;;6120997;23;20408;-59
2023/01/01 02:16:43;;;;;;;11.13;3.27;;;16.10;99.90;;;;;;6121269;23;20415;-57
2023/01/01 02:19:22;;;;;;;9.27;5.07;;;16.10;99.90;;;;;;6120904;23;20392;-58
2023/01/01 02:21:59;;;;;;;10.47;4.97;;;16.00;99.90;;;;;;6111162;23;20417;-55
2023/01/01 02:24:43;;;;;;;5.23;4.73;;;16.00;99.90;;;;;;6121293;23;20424;-57
2023/01/01 02:27:17;;;;;;;6.70;3.60;;;16.00;99.90;;;;;;6122106;23;20443;-56
2023/01/01 02:29:49;;;;;;;9.80;6.00;;;16.10;99.90;;;;;;6122006;23;20380;-60
2023/01/01 02:32:19;;;;;;;8.10;4.70;;;16.00;99.90;;;;;;6122378;23;20420;-56
2023/01/01 02:34:52;;;;;;;6.57;3.50;;;16.00;99.90;;;;;;6122744;23;20403;-60
2023/01/01 02:37:21;;;;;;;6.07;4.60;;;16.00;99.90;;;;;;6123057;23;20367;-57
2023/01/01 02:39:54;;;;;;;8.97;4.10;;;16.00;99.90;;;;;;6122271;23;20438;-59
2023/01/01 02:42:23;;;;;;;8.93;3.93;;;16.00;99.90;;;;;;6121512;23;20448;-56
2023/01/01 02:44:54;;;;;;;5.30;3.80;;;16.00;99.90;;;;;;6122072;23;20395;-59
2023/01/01 02:47:21;;;;;;;7.73;4.20;;;16.00;99.90;;;;;;6123245;23;20434;-57
2023/01/01 02:49:55;;;;;;;9.00;4.50;;;16.00;99.90;;;;;;6122508;23;20416;-58
2023/01/01 02:52:45;;;;;;;7.50;4.60;;;16.00;99.90;;;;;;6122002;23;20431;-58
2023/01/01 02:55:25;;;;;;;5.77;3.63;;;16.00;99.90;;;;;;6121765;23;20850;-56
2023/01/01 02:57:57;;;;;;;8.60;4.20;;;16.00;99.90;;;;;;6120473;23;20384;-58
2023/01/01 03:00:27;;;;;;;10.23;3.83;;;16.00;99.90;;;;;;6120669;23;20883;-59
2023/01/01 03:03:18;;;;;;;6.40;4.20;;;16.00;99.90;;;;;;6120852;23;20427;-57
2023/01/01 03:08:53;;;;;;;7.53;4.40;;;16.00;99.90;;;;;;6121142;23;21112;-58
2023/01/01 03:11:22;;;;;;;7.20;3.47;;;15.90;99.90;;;;;;6120417;23;20447;-57
2023/01/01 03:13:59;;;;;;;7.80;4.87;;;15.90;99.90;;;;;;6120726;23;20391;-58
2023/01/01 03:16:34;;;;;;;6.53;3.30;;;15.90;99.90;;;;;;6120537;23;20407;-57
2023/01/01 03:19:10;;;;;;;7.93;4.27;;;15.80;99.90;;;;;;6120565;23;20387;-56
2023/01/01 03:21:43;;;;;;;5.10;3.90;;;15.80;99.90;;;;;;6121796;23;20427;-57
2023/01/01 03:24:15;;;;;;;5.77;3.40;;;15.90;99.90;;;;;;6121214;23;20434;-59
2023/01/01 03:26:45;;;;;;;4.93;4.17;;;15.90;99.90;;;;;;6120991;23;20455;-59
2023/01/01 03:29:13;;;;;;;6.93;3.30;;;15.90;99.90;;;;;;6120858;23;20447;-60
2023/01/01 03:31:44;;;;;;;5.83;3.90;;;15.90;99.90;;;;;;6120419;23;20423;-63
2023/01/01 03:34:17;;;;;;;6.27;3.27;;;15.80;99.90;;;;;;6120398;23;20386;-56
2023/01/01 03:36:49;;;;;;;5.60;3.50;;;15.80;99.90;;;;;;6120904;23;20782;-58
2023/01/01 03:39:23;;;;;;;4.40;3.03;;;15.80;99.90;;;;;;6121256;23;20396;-59
2023/01/01 03:41:58;;;;;;;4.40;3.13;;;15.80;99.90;;;;;;6120385;23;20897;-58
2023/01/01 03:44:30;;;;;;;6.53;3.30;;;15.80;99.90;;;;;;6120519;23;20391;-56
2023/01/01 03:46:59;;;;;;;3.97;3.03;;;15.80;99.90;;;;;;6120295;23;20443;-59
2023/01/01 03:49:26;;;;;;;11.57;3.00;;;15.70;99.90;;;;;;6119837;23;20392;-59
2023/01/01 03:52:14;;;;;;;5.77;3.97;;;15.70;99.90;;;;;;6120336;23;20416;-59
2023/01/01 03:54:46;;;;;;;6.10;3.77;;;15.70;99.90;;;;;;6120584;23;20399;-58
2023/01/01 03:57:21;;;;;;;5.77;4.03;;;15.70;99.90;;;;;;6120153;23;20434;-57
2023/01/01 03:59:56;;;;;;;4.77;3.53;;;15.70;99.90;;;;;;6120504;23;20407;-58
2023/01/01 04:02:31;;;;;;;15.90;4.50;;;15.60;99.90;;;;;;6121664;23;20434;-52
2023/01/01 04:05:01;;;;;;;5.47;3.23;;;15.60;99.90;;;;;;6120169;23;20410;-58
2023/01/01 04:07:30;;;;;;;5.97;3.87;;;15.60;99.90;;;;;;6120190;23;20448;-58
2023/01/01 04:10:00;;;;;;;5.17;4.50;;;15.60;99.90;;;;;;6121066;23;20392;-58
2023/01/01 04:12:28;;;;;;;8.87;3.90;;;15.60;99.90;;;;;;6122203;23;20419;-57
2023/01/01 04:14:55;;;;;;;5.40;3.13;;;15.60;99.90;;;;;;6122764;23;20402;-56
2023/01/01 04:17:21;;;;;;;4.77;3.47;;;15.50;99.90;;;;;;6122088;23;20416;-58
2023/01/01 04:19:50;;;;;;;8.50;4.90;;;15.50;99.90;;;;;;6122682;23;20387;-59
2023/01/01 04:22:18;;;;;;;5.60;4.03;;;15.50;99.90;;;;;;6122689;23;20418;-59
2023/01/01 04:24:47;;;;;;;8.80;3.83;;;15.50;99.90;;;;;;6121972;23;20420;-58
2023/01/01 04:27:15;;;;;;;4.50;3.40;;;15.50;99.90;;;;;;6112978;23;20450;-54
2023/01/01 04:29:42;;;;;;;7.63;3.27;;;15.50;99.90;;;;;;6121682;23;20396;-59
2023/01/01 04:32:09;;;;;;;5.50;3.70;;;15.40;99.90;;;;;;6121615;23;20411;-58
2023/01/01 04:34:36;;;;;;;6.20;3.90;;;15.40;99.90;;;;;;6121513;23;20407;-57
2023/01/01 04:37:04;;;;;;;7.30;3.27;;;15.40;99.90;;;;;;6121809;23;20399;-55
2023/01/01 04:39:31;;;;;;;6.10;3.30;;;15.40;99.90;;;;;;6121557;23;20419;-56
2023/01/01 04:41:58;;;;;;;6.70;4.50;;;15.40;99.90;;;;;;6121447;23;20400;-57
2023/01/01 04:44:25;;;;;;;10.80;3.53;;;15.30;99.90;;;;;;6121626;23;20715;-58
2023/01/01 04:46:52;;;;;;;7.10;3.70;;;15.30;99.90;;;;;;6122011;23;20432;-59
2023/01/01 04:49:19;;;;;;;5.80;3.40;;;15.30;99.90;;;;;;6122456;23;20398;-57
2023/01/01 04:51:46;;;;;;;9.63;3.73;;;15.30;99.90;;;;;;6122666;23;20440;-58
2023/01/01 04:54:14;;;;;;;5.53;3.60;;;15.30;99.90;;;;;;6123429;23;20431;-59
2023/01/01 04:56:41;;;;;;;6.57;4.47;;;15.20;99.90;;;;;;6123201;23;20380;-60
2023/01/01 04:59:08;;;;;;;6.20;3.37;;;15.30;99.90;;;;;;6122811;23;20423;-57
2023/01/01 05:01:35;;;;;;;6.10;3.13;;;15.30;99.90;;;;;;6123533;23;20428;-59
2023/01/01 05:04:02;;;;;;;6.63;3.90;;;15.30;99.90;;;;;;6122730;23;20463;-58
2023/01/01 05:06:29;;;;;;;10.77;3.03;;;15.30;99.90;;;;;;6122713;23;20403;-60
2023/01/01 05:08:56;;;;;;;6.80;3.70;;;15.30;99.90;;;;;;6121314;23;20451;-59
2023/01/01 05:11:26;;;;;;;3.20;2.60;;;15.30;99.90;;;;;;6121583;23;20724;-59
2023/01/01 05:13:56;;;;;;;6.30;3.63;;;15.30;99.90;;;;;;6120581;23;20438;-58
2023/01/01 05:16:25;;;;;;;6.90;3.87;;;15.30;99.90;;;;;;6120720;23;20403;-58
2023/01/01 05:18:53;;;;;;;6.13;3.03;;;15.30;99.90;;;;;;6120717;23;20428;-59
2023/01/01 05:21:23;;;;;;;2.97;2.67;;;15.30;99.90;;;;;;6120450;23;20417;-58
2023/01/01 05:23:54;;;;;;;4.57;2.43;;;15.30;99.90;;;;;;6121264;23;20438;-59
2023/01/01 05:26:24;;;;;;;4.37;2.73;;;15.30;99.90;;;;;;6121100;23;20476;-57
2023/01/01 05:28:51;;;;;;;4.90;2.73;;;15.30;99.90;;;;;;6120651;23;20447;-58
2023/01/01 05:31:20;;;;;;;5.30;3.17;;;15.30;99.90;;;;;;6120781;23;20392;-58
2023/01/01 05:33:48;;;;;;;4.33;2.93;;;15.30;99.90;;;;;;6120256;23;20444;-58
2023/01/01 05:36:16;;;;;;;6.00;2.53;;;15.30;99.90;;;;;;6121561;23;20404;-59
2023/01/01 05:38:43;;;;;;;3.87;2.40;;;15.30;99.90;;;;;;6121683;23;20424;-56
2023/01/01 05:41:13;;;;;;;6.30;2.20;;;15.30;99.90;;;;;;6121244;23;20408;-58
2023/01/01 05:43:42;;;;;;;6.03;2.73;;;15.30;99.90;;;;;;6121005;23;20414;-58
2023/01/01 05:46:12;;;;;;;3.60;2.53;;;15.30;99.90;;;;;;6120532;23;20416;-59
2023/01/01 05:48:39;;;;;;;5.20;2.37;;;15.30;99.90;;;;;;6120714;23;20428;-58
2023/01/01 05:51:09;;;;;;;8.70;2.73;;;15.30;99.90;;;;;;6120601;23;20392;-57
2023/01/01 05:53:38;;;;;;;9.27;3.13;;;15.30;99.90;;;;;;6113072;23;20414;-56
2023/01/01 05:56:08;;;;;;;4.90;1.87;;;15.30;99.90;;;;;;6121167;23;20411;-56
2023/01/01 05:58:38;;;;;;;3.67;2.53;;;15.30;99.90;;;;;;6120727;23;20411;-57
2023/01/01 06:01:08;;;;;;;7.60;2.73;;;15.30;99.90;;;;;;6120778;23;20392;-57
2023/01/01 06:03:35;;;;;;;5.07;3.33;;;15.30;99.90;;;;;;6120946;23;20403;-56
2023/01/01 06:06:11;;;;;;;5.90;3.93;;;15.30;99.90;;;;;;6120415;23;20395;-57
2023/01/01 06:08:38;;;;;;;4.27;2.47;;;15.30;99.90;;;;;;6120768;23;20443;-58
2023/01/01 06:11:08;;;;;;;4.23;1.90;;;15.30;99.90;;;;;;6121183;23;20414;-58
2023/01/01 06:13:35;;;;;;;8.33;2.63;;;15.30;99.90;;;;;;6120608;23;20411;-58
2023/01/01 06:16:03;;;;;;;8.53;2.73;;;15.30;99.90;;;;;;6121043;23;20411;-56
2023/01/01 06:18:33;;;;;;;3.67;2.77;;;15.30;99.90;;;;;;6120596;23;20415;-56
2023/01/01 06:21:04;;;;;;;7.20;2.93;;;15.30;99.90;;;;;;6121417;23;20427;-55
2023/01/01 06:23:31;;;;;;;4.50;1.97;;;15.30;99.90;;;;;;6120750;23;20384;-61
2023/01/01 06:26:04;;;;;;;5.37;2.40;;;15.20;99.90;;;;;;6121259;23;20396;-60
2023/01/01 06:28:31;;;;;;;5.73;3.33;;;15.20;99.90;;;;;;6121596;23;20443;-62
2023/01/01 06:31:00;;;;;;;3.93;2.70;;;15.20;99.90;;;;;;6122167;23;20442;-59
2023/01/01 06:33:26;;;;;;;2.23;2.03;;;15.20;99.90;;;;;;6122184;23;20438;-60
2023/01/01 06:35:55;;;;;;;4.57;2.40;;;15.20;99.90;;;;;;6122016;23;20435;-57
2023/01/01 06:38:22;;;;;;;8.87;3.37;;;15.20;99.90;;;;;;6122117;23;20411;-56
2023/01/01 06:40:56;;;;;;;6.33;2.73;;;15.20;99.90;;;;;;6122008;23;20415;-57
2023/01/01 06:43:22;;;;;;;4.17;2.70;;;15.20;99.90;;;;;;6121318;23;20384;-57
2023/01/01 06:45:58;;;;;;;2.87;2.13;;;15.20;99.90;;;;;;6121245;23;20435;-60
2023/01/01 06:48:25;;;;;;;3.80;2.40;;;15.30;99.90;;;;;;6121019;23;20415;-59
2023/01/01 06:50:54;;;;;;;4.20;2.87;;;15.30;99.90;;;;;;6120542;23;20443;-58
2023/01/01 06:53:24;;;;;;;3.83;2.50;;;15.30;99.90;;;;;;6120656;23;20404;-57
2023/01/01 06:55:51;;;;;;;6.50;2.60;;;15.30;99.90;;;;;;6120463;23;20451;-58
2023/01/01 06:58:18;;;;;;;3.97;2.50;;;15.20;99.90;;;;;;6119812;23;20410;-56
2023/01/01 07:00:44;;;;;;;10.70;2.87;;;15.20;99.90;;;;;;6119825;23;20415;-57
2023/01/01 07:03:11;;;;;;;4.10;2.40;;;15.20;99.90;;;;;;6120305;23;20400;-57
2023/01/01 07:05:40;;;;;;;4.53;2.60;;;15.20;99.90;;;;;;6119760;23;20435;-59
2023/01/01 07:08:08;;;;;;;4.00;3.17;;;15.20;99.90;;;;;;6119845;23;20424;-57
2023/01/01 07:10:35;;;;;;;4.10;2.43;;;15.20;99.90;;;;;;6119444;23;20505;-57
2023/01/01 07:13:04;;;;;;;7.43;2.47;;;15.20;99.90;;;;;;6119927;23;20395;-59
2023/01/01 07:15:31;;;;;;;4.33;2.20;;;15.20;99.90;;;;;;6119659;23;20434;-60
2023/01/01 07:17:58;;;;;;;5.27;2.80;;;15.20;99.90;;;;;;6120175;23;20420;-58
2023/01/01 07:20:25;;;;;;;5.50;2.53;;;15.20;99.90;;;;;;6119188;23;20435;-58
2023/01/01 07:22:51;;;;;;;4.57;2.43;;;15.20;99.90;;;;;;6120674;23;20402;-59
2023/01/01 07:25:20;;;;;;;4.80;2.77;;;15.20;99.90;;;;;;6121140;23;20398;-59
2023/01/01 07:27:47;;;;;;;3.50;3.10;;;15.20;99.90;;;;;;6121589;23;20436;-56
2023/01/01 07:30:14;;;;;;;5.27;3.07;;;15.20;99.90;;;;;;6120950;23;20826;-56
2023/01/01 07:32:40;;;;;;;3.73;2.67;;;15.30;99.90;;;;;;6120196;23;20403;-55
2023/01/01 07:35:08;;;;;;;3.13;2.43;;;15.20;99.90;;;;;;6120482;23;20408;-60
2023/01/01 07:37:37;;;;;;;5.97;2.40;;;15.30;99.90;;;;;;6120745;23;20415;-57
2023/01/01 07:40:05;;;;;;;3.77;2.70;;;15.30;99.90;;;;;;6120842;23;20408;-59
2023/01/01 07:42:33;;;;;;;6.87;3.73;;;15.30;99.90;;;;;;6110647;23;20399;-57
2023/01/01 07:45:00;;;;;;;6.73;2.30;;;15.20;99.90;;;;;;6120810;23;20404;-61
2023/01/01 07:47:27;;;;;;;5.70;3.17;;;15.30;99.90;;;;;;6121770;23;20403;-59
2023/01/01 07:49:54;;;;;;;6.07;3.33;;;15.30;99.90;;;;;;6122749;23;20447;-58
2023/01/01 07:52:21;;;;;;;8.80;3.70;;;15.30;99.90;;;;;;6122391;23;20403;-58
2023/01/01 07:54:48;;;;;;;3.47;2.60;;;15.40;99.90;;;;;;6122835;23;20403;-60
2023/01/01 07:57:15;;;;;;;7.10;2.80;;;15.40;99.90;;;;;;6121821;23;20415;-58
2023/01/01 07:59:43;;;;;;;9.17;2.80;;;15.40;99.90;;;;;;6121028;23;20407;-57
2023/01/01 08:02:11;;;;;;;5.13;3.33;;;15.40;99.90;;;;;;6121878;23;20435;-56
2023/01/01 08:04:38;;;;;;;5.53;3.77;;;15.40;99.90;;;;;;6122059;23;20400;-58
2023/01/01 08:07:05;;;;;;;4.50;3.03;;;15.40;99.90;;;;;;6121354;23;20913;-57
2023/01/01 08:09:32;;;;;;;5.43;2.80;;;15.40;99.90;;;;;;6121961;23;20451;-56
2023/01/01 08:11:59;;;;;;;3.90;3.50;;;15.40;99.90;;;;;;6121554;23;20438;-56
2023/01/01 08:14:29;;;;;;;5.27;3.07;;;15.40;99.90;;;;;;6121689;23;20392;-59
2023/01/01 08:16:57;;;;;;;3.93;2.73;;;15.50;99.90;;;;;;6112330;23;20455;-58
2023/01/01 08:19:24;;;;;;;4.33;3.03;;;15.40;99.90;;;;;;6122083;23;20392;-56
2023/01/01 08:21:51;;;;;;;3.70;2.87;;;15.50;99.90;;;;;;6120755;23;20443;-59
2023/01/01 08:24:18;;;;;;;3.17;2.87;;;15.40;99.90;;;;;;6122920;23;20415;-57
2023/01/01 08:26:44;;;;;;;6.80;3.87;;;15.50;99.90;;;;;;6121292;23;20427;-60
2023/01/01 08:29:11;;;;;;;8.23;3.77;;;15.50;99.90;;;;;;6121783;23;20439;-57
2023/01/01 08:31:38;;;;;;;4.43;3.73;;;15.50;99.90;;;;;;6121417;23;20420;-57
2023/01/01 08:34:07;;;;;;;7.50;3.13;;;15.50;99.90;;;;;;6121725;23;20395;-58
2023/01/01 08:36:34;;;;;;;4.80;3.30;;;15.60;99.90;;;;;;6116471;23;20407;-58
2023/01/01 08:39:04;;;;;;;9.30;4.87;;;15.60;99.90;;;;;;6118455;23;20391;-56
2023/01/01 08:41:31;;;;;;;6.97;3.10;;;15.50;99.90;;;;;;6115772;23;20383;-59
2023/01/01 08:43:58;;;;;;;5.47;2.90;;;15.60;99.90;;;;;;6122386;23;20395;-58
2023/01/01 08:46:25;;;;;;;7.90;3.40;;;15.60;99.90;;;;;;6122367;23;20422;-57
2023/01/01 08:48:52;;;;;;;5.40;3.13;;;15.50;99.90;;;;;;6113877;23;20453;-57
2023/01/01 08:51:20;;;;;;;3.60;2.57;;;15.60;99.90;;;;;;6119167;23;20408;-56
2023/01/01 08:53:47;;;;;;;4.93;3.47;;;15.60;99.90;;;;;;6121332;23;20399;-57
2023/01/01 08:56:15;;;;;;;4.90;2.87;;;15.60;99.90;;;;;;6119146;23;20414;-59
2023/01/01 08:58:42;;;;;;;5.13;3.37;;;15.60;99.90;;;;;;6112839;23;20400;-58
2023/01/01 09:01:10;;;;;;;7.23;3.13;;;15.70;99.90;;;;;;6121085;23;20404;-60
2023/01/01 09:03:37;;;;;;;3.87;2.67;;;15.70;99.90;;;;;;6121613;23;20427;-58
2023/01/01 09:06:04;;;;;;;5.90;4.00;;;15.60;99.90;;;;;;6121754;23;20400;-58
2023/01/01 09:08:33;;;;;;;5.87;3.97;;;15.70;99.90;;;;;;6122194;23;20439;-59
2023/01/01 09:11:02;;;;;;;5.73;2.80;;;15.60;99.90;;;;;;6122095;23;20463;-56
2023/01/01 09:13:29;;;;;;;3.67;2.17;;;15.60;99.90;;;;;;6120948;23;20463;-58
2023/01/01 09:15:57;;;;;;;5.33;3.30;;;15.70;99.90;;;;;;6120934;23;20407;-58
2023/01/01 09:18:24;;;;;;;7.20;2.77;;;15.60;99.90;;;;;;6121599;23;20519;-56
2023/01/01 09:20:51;;;;;;;5.60;3.10;;;15.70;99.90;;;;;;6121573;23;20384;-58
2023/01/01 09:23:18;;;;;;;6.80;3.80;;;15.60;99.90;;;;;;6113086;23;20451;-60
2023/01/01 09:25:46;;;;;;;5.93;3.20;;;15.60;99.90;;;;;;6118561;23;20404;-58
2023/01/01 09:28:14;;;;;;;5.10;3.60;;;15.60;99.90;;;;;;6116931;23;20428;-55
2023/01/01 09:30:41;;;;;;;4.90;3.10;;;15.60;99.90;;;;;;6121233;23;20439;-59
2023/01/01 09:33:08;;;;;;;5.13;2.30;;;15.60;99.90;;;;;;6121330;23;20423;-62
2023/01/01 09:35:37;;;;;;;5.37;3.20;;;15.60;99.90;;;;;;6122905;23;20403;-59
2023/01/01 09:38:04;;;;;;;4.80;2.37;;;15.70;99.90;;;;;;6122339;23;20427;-60
2023/01/01 09:40:41;;;;;;;6.37;2.90;;;15.70;99.90;;;;;;6122730;23;20400;-57
2023/01/01 09:43:19;;;;;;;5.20;2.97;;;15.70;99.90;;;;;;6117988;23;20435;-58
2023/01/01 09:45:57;;;;;;;4.00;2.60;;;15.70;99.90;;;;;;6123139;23;20468;-57
2023/01/01 09:48:25;;;;;;;4.07;2.40;;;15.70;99.90;;;;;;6121900;23;20427;-59
2023/01/01 09:50:53;;;;;;;6.10;2.60;;;15.70;99.90;;;;;;6122874;23;20422;-59
2023/01/01 09:53:26;;;;;;;7.60;2.70;;;15.80;99.90;;;;;;6122931;23;20427;-57
2023/01/01 09:55:56;;;;;;;4.17;2.80;;;15.80;99.90;;;;;;6123398;23;20384;-58
2023/01/01 09:58:28;;;;;;;3.20;2.67;;;15.90;99.90;;;;;;6121968;23;20434;-58
2023/01/01 10:01:01;;;;;;;3.83;2.60;;;16.00;99.90;;;;;;6121708;23;20392;-58
2023/01/01 10:03:39;;;;;;;4.97;2.60;;;16.00;99.90;;;;;;6121006;23;20660;-57
2023/01/01 10:06:18;;;;;;;5.47;2.90;;;16.10;99.90;;;;;;6121023;23;20459;-59
2023/01/01 10:08:59;;;;;;;5.50;2.43;;;16.20;99.90;;;;;;6121069;23;20456;-57
2023/01/01 10:11:36;;;;;;;3.13;2.83;;;16.30;99.90;;;;;;6120749;23;20384;-59
2023/01/01 10:14:14;;;;;;;6.20;3.37;;;16.30;99.90;;;;;;6113404;23;20464;-58
2023/01/01 10:16:45;;;;;;;6.60;2.70;;;16.40;99.90;;;;;;6120871;23;20447;-59
2023/01/01 10:19:22;;;;;;;2.80;2.53;;;16.50;99.90;;;;;;6111528;23;20416;-59
2023/01/01 10:21:52;;;;;;;3.40;2.50;;;16.50;99.90;;;;;;6120305;23;20395;-60
2023/01/01 10:24:35;;;;;;;3.10;2.53;;;16.50;99.90;;;;;;6120080;23;20449;-58
2023/01/01 10:27:04;;;;;;;3.50;2.50;;;16.40;99.90;;;;;;6120750;23;20392;-55
2023/01/01 10:29:40;;;;;;;4.77;2.57;;;16.40;99.90;;;;;;6120653;23;20447;-58
2023/01/01 10:32:19;;;;;;;7.03;2.70;;;16.30;99.90;;;;;;6120250;23;20403;-58
2023/01/01 10:34:46;;;;;;;5.33;2.33;;;16.30;99.90;;;;;;6120591;23;20750;-56
2023/01/01 10:37:14;;;;;;;3.53;2.90;;;16.30;99.90;;;;;;6120388;23;20410;-55
2023/01/01 10:39:43;;;;;;;3.97;3.00;;;16.30;99.90;;;;;;6119561;23;20464;-57
2023/01/01 10:42:12;;;;;;;2.80;2.30;;;16.30;99.90;;;;;;6120701;23;20400;-58
2023/01/01 10:44:42;;;;;;;5.10;2.47;;;16.30;99.90;;;;;;6120088;23;20439;-58
2023/01/01 10:47:25;;;;;;;6.57;4.20;;;16.30;99.90;;;;;;6120508;23;20443;-58
2023/01/01 10:49:56;;;;;;;2.13;1.93;;;16.30;99.90;;;;;;6119666;23;20466;-58
2023/01/01 10:52:27;;;;;;;4.37;2.63;;;16.30;99.90;;;;;;6121394;23;20403;-58
2023/01/01 10:54:54;;;;;;;3.97;2.70;;;16.30;99.90;;;;;;6120513;23;20416;-58
2023/01/01 10:57:32;;;;;;;3.23;2.07;;;16.30;99.90;;;;;;6120622;23;20766;-56
2023/01/01 11:00:21;;;;;;;4.27;2.33;;;16.30;99.90;;;;;;6119716;23;20491;-60
2023/01/01 11:03:05;;;;;;;4.13;2.50;;;16.20;99.90;;;;;;6120473;23;20435;-59
2023/01/01 11:05:32;;;;;;;4.17;2.07;;;16.20;99.90;;;;;;6116528;23;20443;-56
2023/01/01 11:07:59;;;;;;;2.87;2.00;;;16.30;99.90;;;;;;6117962;23;20411;-58
2023/01/01 11:10:27;;;;;;;4.37;1.93;;;16.30;99.90;;;;;;6120409;23;20462;-59
2023/01/01 11:12:57;;;;;;;3.07;2.57;;;16.30;99.90;;;;;;6120519;23;20408;-59
2023/01/01 11:15:37;;;;;;;4.23;2.27;;;16.30;99.90;;;;;;6121110;23;20435;-60
2023/01/01 11:18:07;;;;;;;6.27;2.10;;;16.30;99.90;;;;;;6121097;23;20376;-53
2023/01/01 11:20:34;;;;;;;5.23;2.17;;;16.30;99.90;;;;;;6120474;23;20441;-55
2023/01/01 11:23:18;;;;;;;4.27;2.23;;;16.30;99.90;;;;;;6119398;23;20413;-58
2023/01/01 11:26:02;;;;;;;2.40;1.90;;;16.30;99.90;;;;;;6121867;23;20412;-59
2023/01/01 11:28:33;;;;;;;3.27;2.60;;;16.20;99.90;;;;;;6121719;23;20412;-55
2023/01/01 11:31:10;;;;;;;6.60;2.50;;;16.30;99.90;;;;;;6119959;23;20427;-54
2023/01/01 11:33:43;;;;;;;4.23;2.57;;;16.20;99.90;;;;;;6119993;23;20419;-56
2023/01/01 11:36:10;;;;;;;3.90;2.00;;;16.20;99.90;;;;;;6120108;23;20903;-59
2023/01/01 11:38:38;;;;;;;5.03;2.63;;;16.30;99.90;;;;;;6120157;23;20406;-57
2023/01/01 11:41:06;;;;;;;4.30;2.57;;;16.20;99.90;;;;;;6119866;23;20435;-58
2023/01/01 11:43:39;;;;;;;2.17;1.83;;;16.30;99.90;;;;;;6120810;23;20411;-58
2023/01/01 11:46:15;;;;;;;8.47;2.67;;;16.30;99.90;;;;;;6120559;23;20416;-60
2023/01/01 11:48:43;;;;;;;3.63;2.43;;;16.30;99.90;;;;;;6120047;23;20404;-63
2023/01/01 11:51:28;;;;;;;2.70;2.13;;;16.40;99.90;;;;;;6120569;23;20402;-59
2023/01/01 11:54:22;;;;;;;12.73;3.30;;;16.40;99.90;;;;;;6111420;23;20400;-58
2023/01/01 11:56:53;;;;;;;5.63;3.20;;;16.50;99.90;;;;;;6120234;23;20395;-55
2023/01/01 11:59:27;;;;;;;4.93;2.60;;;16.50;99.90;;;;;;6120370;23;20419;-59
2023/01/01 12:02:02;;;;;;;9.33;2.63;;;16.50;99.90;;;;;;6121689;23;20371;-58
2023/01/01 12:04:33;;;;;;;2.27;1.70;;;16.50;99.90;;;;;;6121442;23;20391;-57
2023/01/01 12:07:06;;;;;;;3.97;2.43;;;16.50;99.90;;;;;;6114716;23;20388;-57
2023/01/01 12:09:42;;;;;;;4.80;2.03;;;16.50;99.90;;;;;;6120255;23;20433;-58
2023/01/01 12:12:15;;;;;;;3.40;2.00;;;16.50;99.90;;;;;;6122179;23;20392;-60
2023/01/01 12:14:48;;;;;;;2.40;2.20;;;16.50;99.90;;;;;;6121535;23;20392;-57
2023/01/01 12:17:20;;;;;;;10.33;2.00;;;16.50;99.90;;;;;;6120930;23;20403;-62
2023/01/01 12:19:58;;;;;;;2.80;2.30;;;16.50;99.90;;;;;;6120484;23;20384;-58
2023/01/01 12:22:25;;;;;;;3.37;2.20;;;16.50;99.90;;;;;;6120447;23;20402;-59
2023/01/01 12:24:53;;;;;;;3.70;2.17;;;16.50;99.90;;;;;;6120679;23;20407;-58
2023/01/01 12:27:35;;;;;;;3.80;2.20;;;16.60;99.90;;;;;;6120922;23;20403;-57
2023/01/01 12:30:11;;;;;;;12.40;2.20;;;16.50;99.90;;;;;;6120440;23;20427;-59
2023/01/01 12:33:02;;;;;;;2.30;1.97;;;16.50;99.90;;;;;;6121146;23;20455;-58
2023/01/01 12:35:43;;;;;;;3.47;2.70;;;16.50;99.90;;;;;;6122803;23;20431;-55
2023/01/01 12:38:21;;;;;;;7.70;2.70;;;16.50;99.90;;;;;;6122480;23;20407;-59
2023/01/01 12:40:55;;;;;;;7.87;3.80;;;16.50;99.90;;;;;;6122274;23;20419;-59
2023/01/01 12:43:31;;;;;;;8.73;2.93;;;16.50;99.90;;;;;;6122293;23;20370;-58
2023/01/01 12:46:35;;;;;;;6.03;3.03;;;16.50;99.90;;;;;;6122377;23;20415;-58
2023/01/01 12:49:19;;;;;;;6.37;3.30;;;16.50;99.90;;;;;;6117615;23;20422;-59
2023/01/01 12:52:00;;;;;;;3.17;2.17;;;16.40;99.90;;;;;;6121525;23;20434;-60
2023/01/01 12:55:23;;;;;;;3.00;2.20;;;16.30;99.90;;;;;;6121907;23;20371;-59
2023/01/01 12:57:56;;;;;;;3.73;2.60;;;16.40;99.90;;;;;;6121340;23;20427;-58
2023/01/01 13:00:23;;;;;;;2.87;2.20;;;16.40;99.90;;;;;;6121770;23;20407;-56
2023/01/01 13:02:57;;;;;;;5.07;2.40;;;16.30;99.90;;;;;;6122424;23;20918;-55
2023/01/01 13:05:32;;;;;;;4.23;2.03;;;16.40;99.90;;;;;;6122780;23;20422;-55
2023/01/01 13:08:01;;;;;;;3.60;2.50;;;16.40;99.90;;;;;;6122291;23;20423;-56
2023/01/01 13:10:33;;;;;;;5.50;2.77;;;16.30;99.90;;;;;;6122594;23;20443;-57